sensor_id;sensor_type;location;lat;lon;timestamp;P1;durP1;ratioP1;P2;durP2;ratioP2
59169;SDS011;52474;52.236;5.114;2023-05-27T00:01:22;14.13;;;3.03;;
59169;SDS011;52474;52.236;5.114;2023-05-27T00:03:48;11.43;;;3.38;;
59169;SDS011;52474;52.236;5.114;2023-05-27T00:06:14;13.43;;;3.45;;
59169;SDS011;52474;52.236;5.114;2023-05-27T00:08:40;10.65;;;3.03;;
59169;SDS011;52474;52.236;5.114;2023-05-27T00:11:06;15.55;;;3.67;;
59169;SDS011;52474;52.236;5.114;2023-05-27T00:13:32;13.00;;;3.30;;
59169;SDS011;52474;52.236;5.114;2023-05-27T00:15:57;9.82;;;3.20;;
59169;SDS011;52474;52.236;5.114;2023-05-27T00:18:23;14.32;;;4.50;;
59169;SDS011;52474;52.236;5.114;2023-05-27T00:20:49;13.88;;;3.17;;
59169;SDS011;52474;52.236;5.114;2023-05-27T00:23:15;14.40;;;3.47;;
59169;SDS011;52474;52.236;5.114;2023-05-27T00:25:40;7.38;;;2.72;;
59169;SDS011;52474;52.236;5.114;2023-05-27T00:28:06;12.35;;;3.45;;
59169;SDS011;52474;52.236;5.114;2023-05-27T00:30:32;15.93;;;3.58;;
59169;SDS011;52474;52.236;5.114;2023-05-27T00:32:57;13.88;;;3.45;;
59169;SDS011;52474;52.236;5.114;2023-05-27T00:35:23;13.93;;;2.97;;
59169;SDS011;52474;52.236;5.114;2023-05-27T00:37:49;8.93;;;3.35;;
59169;SDS011;52474;52.236;5.114;2023-05-27T00:40:15;13.63;;;3.50;;
59169;SDS011;52474;52.236;5.114;2023-05-27T00:42:45;10.25;;;3.10;;
59169;SDS011;52474;52.236;5.114;2023-05-27T00:45:11;12.88;;;3.20;;
59169;SDS011;52474;52.236;5.114;2023-05-27T00:47:37;10.88;;;2.88;;
59169;SDS011;52474;52.236;5.114;2023-05-27T00:50:03;9.63;;;3.17;;
59169;SDS011;52474;52.236;5.114;2023-05-27T00:52:29;14.00;;;3.50;;
59169;SDS011;52474;52.236;5.114;2023-05-27T00:54:55;15.77;;;3.10;;
59169;SDS011;52474;52.236;5.114;2023-05-27T00:57:22;12.68;;;3.72;;
59169;SDS011;52474;52.236;5.114;2023-05-27T00:59:48;13.32;;;2.83;;
59169;SDS011;52474;52.236;5.114;2023-05-27T01:02:14;16.40;;;3.60;;
59169;SDS011;52474;52.236;5.114;2023-05-27T01:04:40;11.70;;;2.97;;
59169;SDS011;52474;52.236;5.114;2023-05-27T01:10:26;11.60;;;3.45;;
59169;SDS011;52474;52.236;5.114;2023-05-27T01:12:51;10.35;;;3.08;;
59169;SDS011;52474;52.236;5.114;2023-05-27T01:15:22;15.48;;;3.67;;
59169;SDS011;52474;52.236;5.114;2023-05-27T01:17:49;13.60;;;2.90;;
59169;SDS011;52474;52.236;5.114;2023-05-27T01:20:21;11.45;;;3.50;;
59169;SDS011;52474;52.236;5.114;2023-05-27T01:22:48;9.40;;;3.45;;
59169;SDS011;52474;52.236;5.114;2023-05-27T01:25:17;11.98;;;3.38;;
59169;SDS011;52474;52.236;5.114;2023-05-27T01:27:45;10.88;;;2.95;;
59169;SDS011;52474;52.236;5.114;2023-05-27T01:30:11;12.02;;;2.65;;
59169;SDS011;52474;52.236;5.114;2023-05-27T01:32:48;15.38;;;3.47;;
59169;SDS011;52474;52.236;5.114;2023-05-27T01:38:13;11.27;;;2.83;;
59169;SDS011;52474;52.236;5.114;2023-05-27T01:40:41;12.13;;;3.20;;
59169;SDS011;52474;52.236;5.114;2023-05-27T01:43:09;13.95;;;3.58;;
59169;SDS011;52474;52.236;5.114;2023-05-27T01:48:05;11.23;;;3.28;;
59169;SDS011;52474;52.236;5.114;2023-05-27T01:50:32;13.32;;;3.55;;
59169;SDS011;52474;52.236;5.114;2023-05-27T01:52:59;10.70;;;3.13;;
59169;SDS011;52474;52.236;5.114;2023-05-27T01:55:25;13.98;;;3.47;;
59169;SDS011;52474;52.236;5.114;2023-05-27T01:57:52;14.98;;;3.50;;
59169;SDS011;52474;52.236;5.114;2023-05-27T02:00:18;14.20;;;3.45;;
59169;SDS011;52474;52.236;5.114;2023-05-27T02:02:44;13.23;;;3.30;;
59169;SDS011;52474;52.236;5.114;2023-05-27T02:05:12;15.88;;;4.28;;
59169;SDS011;52474;52.236;5.114;2023-05-27T02:07:38;14.95;;;3.75;;
59169;SDS011;52474;52.236;5.114;2023-05-27T02:10:04;13.45;;;3.80;;
59169;SDS011;52474;52.236;5.114;2023-05-27T02:12:30;12.25;;;3.22;;
59169;SDS011;52474;52.236;5.114;2023-05-27T02:14:56;10.23;;;3.58;;
59169;SDS011;52474;52.236;5.114;2023-05-27T02:17:22;14.13;;;3.38;;
59169;SDS011;52474;52.236;5.114;2023-05-27T02:19:50;12.65;;;3.30;;
59169;SDS011;52474;52.236;5.114;2023-05-27T02:22:16;11.48;;;3.80;;
59169;SDS011;52474;52.236;5.114;2023-05-27T02:24:42;12.88;;;4.07;;
59169;SDS011;52474;52.236;5.114;2023-05-27T02:27:08;16.48;;;4.40;;
59169;SDS011;52474;52.236;5.114;2023-05-27T02:29:34;19.77;;;3.80;;
59169;SDS011;52474;52.236;5.114;2023-05-27T02:32:00;12.85;;;3.60;;
59169;SDS011;52474;52.236;5.114;2023-05-27T02:34:26;11.50;;;3.78;;
59169;SDS011;52474;52.236;5.114;2023-05-27T02:36:51;12.00;;;3.40;;
59169;SDS011;52474;52.236;5.114;2023-05-27T02:39:17;13.95;;;3.38;;
59169;SDS011;52474;52.236;5.114;2023-05-27T02:41:43;17.63;;;3.90;;
59169;SDS011;52474;52.236;5.114;2023-05-27T02:44:10;10.38;;;3.28;;
59169;SDS011;52474;52.236;5.114;2023-05-27T02:46:35;17.67;;;3.63;;
59169;SDS011;52474;52.236;5.114;2023-05-27T02:49:01;14.95;;;3.88;;
59169;SDS011;52474;52.236;5.114;2023-05-27T02:51:28;14.45;;;3.97;;
59169;SDS011;52474;52.236;5.114;2023-05-27T02:53:54;11.68;;;4.03;;
59169;SDS011;52474;52.236;5.114;2023-05-27T02:56:20;12.93;;;3.97;;
59169;SDS011;52474;52.236;5.114;2023-05-27T02:58:48;16.65;;;4.03;;
59169;SDS011;52474;52.236;5.114;2023-05-27T03:01:13;10.00;;;3.33;;
59169;SDS011;52474;52.236;5.114;2023-05-27T03:03:39;13.10;;;3.30;;
59169;SDS011;52474;52.236;5.114;2023-05-27T03:06:05;15.27;;;3.95;;
59169;SDS011;52474;52.236;5.114;2023-05-27T03:08:31;13.18;;;3.65;;
59169;SDS011;52474;52.236;5.114;2023-05-27T03:10:57;11.48;;;3.78;;
59169;SDS011;52474;52.236;5.114;2023-05-27T03:13:23;12.55;;;3.60;;
59169;SDS011;52474;52.236;5.114;2023-05-27T03:15:49;18.00;;;4.28;;
59169;SDS011;52474;52.236;5.114;2023-05-27T03:18:15;14.63;;;4.40;;
59169;SDS011;52474;52.236;5.114;2023-05-27T03:20:41;10.45;;;3.47;;
59169;SDS011;52474;52.236;5.114;2023-05-27T03:23:07;15.00;;;3.55;;
59169;SDS011;52474;52.236;5.114;2023-05-27T03:25:33;13.45;;;4.57;;
59169;SDS011;52474;52.236;5.114;2023-05-27T03:28:01;16.27;;;4.65;;
59169;SDS011;52474;52.236;5.114;2023-05-27T03:30:27;15.02;;;3.95;;
59169;SDS011;52474;52.236;5.114;2023-05-27T03:32:54;16.30;;;4.75;;
59169;SDS011;52474;52.236;5.114;2023-05-27T03:35:29;10.70;;;3.58;;
59169;SDS011;52474;52.236;5.114;2023-05-27T03:37:55;15.07;;;3.40;;
59169;SDS011;52474;52.236;5.114;2023-05-27T03:40:20;19.48;;;5.45;;
59169;SDS011;52474;52.236;5.114;2023-05-27T03:42:46;17.40;;;3.58;;
59169;SDS011;52474;52.236;5.114;2023-05-27T03:45:16;16.45;;;4.38;;
59169;SDS011;52474;52.236;5.114;2023-05-27T03:47:42;13.60;;;4.28;;
59169;SDS011;52474;52.236;5.114;2023-05-27T03:50:08;12.07;;;3.75;;
59169;SDS011;52474;52.236;5.114;2023-05-27T03:52:34;14.80;;;3.78;;
59169;SDS011;52474;52.236;5.114;2023-05-27T03:55:01;17.65;;;4.43;;
59169;SDS011;52474;52.236;5.114;2023-05-27T03:57:27;12.13;;;4.00;;
59169;SDS011;52474;52.236;5.114;2023-05-27T03:59:53;16.20;;;4.10;;
59169;SDS011;52474;52.236;5.114;2023-05-27T04:02:18;12.48;;;3.65;;
59169;SDS011;52474;52.236;5.114;2023-05-27T04:04:44;20.73;;;4.15;;
59169;SDS011;52474;52.236;5.114;2023-05-27T04:07:11;13.75;;;3.80;;
59169;SDS011;52474;52.236;5.114;2023-05-27T04:09:38;15.55;;;4.18;;
59169;SDS011;52474;52.236;5.114;2023-05-27T04:12:04;14.35;;;4.35;;
59169;SDS011;52474;52.236;5.114;2023-05-27T04:14:31;12.70;;;3.25;;
59169;SDS011;52474;52.236;5.114;2023-05-27T04:16:57;12.27;;;3.40;;
59169;SDS011;52474;52.236;5.114;2023-05-27T04:19:23;13.88;;;4.00;;
59169;SDS011;52474;52.236;5.114;2023-05-27T04:21:49;14.23;;;4.05;;
59169;SDS011;52474;52.236;5.114;2023-05-27T04:24:15;15.45;;;4.18;;
59169;SDS011;52474;52.236;5.114;2023-05-27T04:26:42;18.08;;;4.78;;
59169;SDS011;52474;52.236;5.114;2023-05-27T04:29:08;15.55;;;4.45;;
59169;SDS011;52474;52.236;5.114;2023-05-27T04:31:37;17.90;;;4.05;;
59169;SDS011;52474;52.236;5.114;2023-05-27T04:34:09;15.13;;;4.10;;
59169;SDS011;52474;52.236;5.114;2023-05-27T04:36:39;12.75;;;4.28;;
59169;SDS011;52474;52.236;5.114;2023-05-27T04:39:10;18.80;;;4.50;;
59169;SDS011;52474;52.236;5.114;2023-05-27T04:41:40;13.63;;;3.80;;
59169;SDS011;52474;52.236;5.114;2023-05-27T04:44:18;10.73;;;3.45;;
59169;SDS011;52474;52.236;5.114;2023-05-27T04:46:47;17.27;;;4.32;;
59169;SDS011;52474;52.236;5.114;2023-05-27T04:49:13;16.38;;;4.32;;
59169;SDS011;52474;52.236;5.114;2023-05-27T04:51:39;16.27;;;4.60;;
59169;SDS011;52474;52.236;5.114;2023-05-27T04:54:06;19.15;;;4.13;;
59169;SDS011;52474;52.236;5.114;2023-05-27T04:56:33;13.73;;;3.92;;
59169;SDS011;52474;52.236;5.114;2023-05-27T04:58:59;15.68;;;4.28;;
59169;SDS011;52474;52.236;5.114;2023-05-27T05:01:35;17.40;;;4.20;;
59169;SDS011;52474;52.236;5.114;2023-05-27T05:04:26;15.98;;;4.10;;
59169;SDS011;52474;52.236;5.114;2023-05-27T05:06:58;15.57;;;4.47;;
59169;SDS011;52474;52.236;5.114;2023-05-27T05:09:25;16.70;;;4.35;;
59169;SDS011;52474;52.236;5.114;2023-05-27T05:11:51;12.15;;;3.80;;
59169;SDS011;52474;52.236;5.114;2023-05-27T05:14:17;12.73;;;3.40;;
59169;SDS011;52474;52.236;5.114;2023-05-27T05:16:43;16.35;;;3.70;;
59169;SDS011;52474;52.236;5.114;2023-05-27T05:19:09;22.75;;;4.55;;
59169;SDS011;52474;52.236;5.114;2023-05-27T05:21:37;13.55;;;4.07;;
59169;SDS011;52474;52.236;5.114;2023-05-27T05:24:05;18.08;;;4.05;;
59169;SDS011;52474;52.236;5.114;2023-05-27T05:26:32;20.25;;;4.75;;
59169;SDS011;52474;52.236;5.114;2023-05-27T05:29:02;14.30;;;3.83;;
59169;SDS011;52474;52.236;5.114;2023-05-27T05:31:30;22.08;;;4.63;;
59169;SDS011;52474;52.236;5.114;2023-05-27T05:33:57;20.92;;;4.65;;
59169;SDS011;52474;52.236;5.114;2023-05-27T05:36:24;14.20;;;3.70;;
59169;SDS011;52474;52.236;5.114;2023-05-27T05:38:55;16.00;;;3.90;;
59169;SDS011;52474;52.236;5.114;2023-05-27T05:41:21;12.70;;;4.03;;
59169;SDS011;52474;52.236;5.114;2023-05-27T05:43:47;17.35;;;4.30;;
59169;SDS011;52474;52.236;5.114;2023-05-27T05:46:13;18.38;;;4.35;;
59169;SDS011;52474;52.236;5.114;2023-05-27T05:48:39;13.52;;;4.57;;
59169;SDS011;52474;52.236;5.114;2023-05-27T05:51:08;15.68;;;4.35;;
59169;SDS011;52474;52.236;5.114;2023-05-27T05:53:33;14.75;;;3.95;;
59169;SDS011;52474;52.236;5.114;2023-05-27T05:55:59;15.07;;;3.97;;
59169;SDS011;52474;52.236;5.114;2023-05-27T05:58:25;19.02;;;4.38;;
59169;SDS011;52474;52.236;5.114;2023-05-27T06:00:51;17.58;;;4.85;;
59169;SDS011;52474;52.236;5.114;2023-05-27T06:03:33;16.15;;;4.97;;
59169;SDS011;52474;52.236;5.114;2023-05-27T06:06:03;17.05;;;4.55;;
59169;SDS011;52474;52.236;5.114;2023-05-27T06:08:29;16.15;;;4.53;;
59169;SDS011;52474;52.236;5.114;2023-05-27T06:11:08;13.98;;;4.50;;
59169;SDS011;52474;52.236;5.114;2023-05-27T06:13:34;17.50;;;5.03;;
59169;SDS011;52474;52.236;5.114;2023-05-27T06:16:01;19.05;;;4.32;;
59169;SDS011;52474;52.236;5.114;2023-05-27T06:18:28;16.20;;;4.15;;
59169;SDS011;52474;52.236;5.114;2023-05-27T06:20:54;16.77;;;4.78;;
59169;SDS011;52474;52.236;5.114;2023-05-27T06:23:22;13.70;;;4.28;;
59169;SDS011;52474;52.236;5.114;2023-05-27T06:25:51;14.43;;;3.65;;
59169;SDS011;52474;52.236;5.114;2023-05-27T06:28:17;14.45;;;4.13;;
59169;SDS011;52474;52.236;5.114;2023-05-27T06:30:43;18.02;;;4.85;;
59169;SDS011;52474;52.236;5.114;2023-05-27T06:33:10;12.75;;;4.45;;
59169;SDS011;52474;52.236;5.114;2023-05-27T06:35:36;18.65;;;3.88;;
59169;SDS011;52474;52.236;5.114;2023-05-27T06:38:03;14.70;;;4.53;;
59169;SDS011;52474;52.236;5.114;2023-05-27T06:40:28;13.20;;;3.78;;
59169;SDS011;52474;52.236;5.114;2023-05-27T06:42:54;14.88;;;3.85;;
59169;SDS011;52474;52.236;5.114;2023-05-27T06:45:47;12.77;;;4.50;;
59169;SDS011;52474;52.236;5.114;2023-05-27T06:48:26;15.50;;;3.38;;
59169;SDS011;52474;52.236;5.114;2023-05-27T06:50:52;14.13;;;3.80;;
59169;SDS011;52474;52.236;5.114;2023-05-27T06:53:17;15.02;;;4.28;;
59169;SDS011;52474;52.236;5.114;2023-05-27T06:55:56;10.90;;;3.33;;
59169;SDS011;52474;52.236;5.114;2023-05-27T06:58:48;13.48;;;3.53;;
59169;SDS011;52474;52.236;5.114;2023-05-27T07:01:16;14.65;;;3.78;;
59169;SDS011;52474;52.236;5.114;2023-05-27T07:03:48;13.35;;;4.43;;
59169;SDS011;52474;52.236;5.114;2023-05-27T07:06:20;14.98;;;3.97;;
59169;SDS011;52474;52.236;5.114;2023-05-27T07:08:48;17.73;;;4.30;;
59169;SDS011;52474;52.236;5.114;2023-05-27T07:11:23;11.63;;;3.53;;
59169;SDS011;52474;52.236;5.114;2023-05-27T07:13:50;13.30;;;3.83;;
59169;SDS011;52474;52.236;5.114;2023-05-27T07:16:23;12.60;;;3.95;;
59169;SDS011;52474;52.236;5.114;2023-05-27T07:18:49;15.10;;;4.50;;
59169;SDS011;52474;52.236;5.114;2023-05-27T07:21:15;15.73;;;4.20;;
59169;SDS011;52474;52.236;5.114;2023-05-27T07:23:41;14.65;;;3.80;;
59169;SDS011;52474;52.236;5.114;2023-05-27T07:26:22;14.75;;;3.80;;
59169;SDS011;52474;52.236;5.114;2023-05-27T07:28:49;13.85;;;4.53;;
59169;SDS011;52474;52.236;5.114;2023-05-27T07:31:25;12.45;;;3.40;;
59169;SDS011;52474;52.236;5.114;2023-05-27T07:33:57;16.38;;;5.05;;
59169;SDS011;52474;52.236;5.114;2023-05-27T07:36:23;15.70;;;4.45;;
59169;SDS011;52474;52.236;5.114;2023-05-27T07:38:49;12.57;;;4.07;;
59169;SDS011;52474;52.236;5.114;2023-05-27T07:41:15;13.23;;;4.30;;
59169;SDS011;52474;52.236;5.114;2023-05-27T07:43:41;13.50;;;4.50;;
59169;SDS011;52474;52.236;5.114;2023-05-27T07:46:07;11.75;;;3.67;;
59169;SDS011;52474;52.236;5.114;2023-05-27T07:48:35;12.57;;;3.97;;
59169;SDS011;52474;52.236;5.114;2023-05-27T07:51:01;13.50;;;3.65;;
59169;SDS011;52474;52.236;5.114;2023-05-27T07:53:27;14.95;;;4.30;;
59169;SDS011;52474;52.236;5.114;2023-05-27T07:55:53;11.88;;;4.03;;
59169;SDS011;52474;52.236;5.114;2023-05-27T07:58:19;11.82;;;4.28;;
59169;SDS011;52474;52.236;5.114;2023-05-27T08:00:58;10.38;;;3.60;;
59169;SDS011;52474;52.236;5.114;2023-05-27T08:03:24;15.40;;;4.40;;
59169;SDS011;52474;52.236;5.114;2023-05-27T08:06:17;13.57;;;3.88;;
59169;SDS011;52474;52.236;5.114;2023-05-27T08:09:02;15.60;;;5.00;;
59169;SDS011;52474;52.236;5.114;2023-05-27T08:12:07;13.27;;;4.18;;
59169;SDS011;52474;52.236;5.114;2023-05-27T08:14:56;11.82;;;4.07;;
59169;SDS011;52474;52.236;5.114;2023-05-27T08:17:24;13.60;;;4.50;;
59169;SDS011;52474;52.236;5.114;2023-05-27T08:20:13;12.07;;;3.90;;
59169;SDS011;52474;52.236;5.114;2023-05-27T08:22:47;13.90;;;4.53;;
59169;SDS011;52474;52.236;5.114;2023-05-27T08:25:31;15.30;;;4.63;;
59169;SDS011;52474;52.236;5.114;2023-05-27T08:28:15;13.50;;;4.40;;
59169;SDS011;52474;52.236;5.114;2023-05-27T08:31:00;11.93;;;4.32;;
59169;SDS011;52474;52.236;5.114;2023-05-27T08:33:35;12.73;;;4.22;;
59169;SDS011;52474;52.236;5.114;2023-05-27T08:36:02;11.30;;;4.32;;
59169;SDS011;52474;52.236;5.114;2023-05-27T08:38:28;15.98;;;3.92;;
59169;SDS011;52474;52.236;5.114;2023-05-27T08:41:05;15.00;;;4.40;;
59169;SDS011;52474;52.236;5.114;2023-05-27T08:43:31;10.57;;;4.25;;
59169;SDS011;52474;52.236;5.114;2023-05-27T08:46:00;13.17;;;4.73;;
59169;SDS011;52474;52.236;5.114;2023-05-27T08:48:26;11.68;;;3.70;;
59169;SDS011;52474;52.236;5.114;2023-05-27T08:50:55;13.32;;;4.70;;
59169;SDS011;52474;52.236;5.114;2023-05-27T08:53:22;13.70;;;4.38;;
59169;SDS011;52474;52.236;5.114;2023-05-27T08:55:50;12.70;;;4.55;;
59169;SDS011;52474;52.236;5.114;2023-05-27T08:58:18;15.02;;;3.85;;
59169;SDS011;52474;52.236;5.114;2023-05-27T09:00:48;10.50;;;4.05;;
59169;SDS011;52474;52.236;5.114;2023-05-27T09:03:17;10.82;;;3.65;;
59169;SDS011;52474;52.236;5.114;2023-05-27T09:05:44;10.02;;;4.00;;
59169;SDS011;52474;52.236;5.114;2023-05-27T09:08:10;14.18;;;4.10;;
59169;SDS011;52474;52.236;5.114;2023-05-27T09:10:39;12.57;;;4.43;;
59169;SDS011;52474;52.236;5.114;2023-05-27T09:13:06;10.32;;;3.97;;
59169;SDS011;52474;52.236;5.114;2023-05-27T09:15:32;13.13;;;4.15;;
59169;SDS011;52474;52.236;5.114;2023-05-27T09:17:58;13.00;;;4.35;;
59169;SDS011;52474;52.236;5.114;2023-05-27T09:20:27;11.23;;;3.80;;
59169;SDS011;52474;52.236;5.114;2023-05-27T09:22:57;13.15;;;4.18;;
59169;SDS011;52474;52.236;5.114;2023-05-27T09:25:24;10.45;;;4.40;;
59169;SDS011;52474;52.236;5.114;2023-05-27T09:27:50;11.98;;;4.45;;
59169;SDS011;52474;52.236;5.114;2023-05-27T09:30:18;12.05;;;4.40;;
59169;SDS011;52474;52.236;5.114;2023-05-27T09:32:46;15.57;;;4.13;;
59169;SDS011;52474;52.236;5.114;2023-05-27T09:57:03;12.52;;;4.80;;
59169;SDS011;52474;52.236;5.114;2023-05-27T09:59:31;10.32;;;3.95;;
59169;SDS011;52474;52.236;5.114;2023-05-27T10:01:58;12.77;;;4.60;;
59169;SDS011;52474;52.236;5.114;2023-05-27T10:04:28;11.82;;;4.43;;
59169;SDS011;52474;52.236;5.114;2023-05-27T10:06:55;13.60;;;4.60;;
59169;SDS011;52474;52.236;5.114;2023-05-27T10:09:22;10.15;;;4.32;;
59169;SDS011;52474;52.236;5.114;2023-05-27T10:11:48;13.88;;;5.28;;
59169;SDS011;52474;52.236;5.114;2023-05-27T10:14:20;13.43;;;4.82;;
59169;SDS011;52474;52.236;5.114;2023-05-27T10:16:55;15.18;;;4.72;;
59169;SDS011;52474;52.236;5.114;2023-05-27T10:19:21;13.48;;;5.30;;
59169;SDS011;52474;52.236;5.114;2023-05-27T10:21:47;12.20;;;4.63;;
59169;SDS011;52474;52.236;5.114;2023-05-27T10:24:15;13.95;;;4.30;;
59169;SDS011;52474;52.236;5.114;2023-05-27T10:26:42;14.50;;;4.75;;
59169;SDS011;52474;52.236;5.114;2023-05-27T10:29:13;13.20;;;4.63;;
59169;SDS011;52474;52.236;5.114;2023-05-27T10:31:46;12.30;;;4.55;;
59169;SDS011;52474;52.236;5.114;2023-05-27T10:34:16;11.73;;;4.68;;
59169;SDS011;52474;52.236;5.114;2023-05-27T10:36:43;9.07;;;4.00;;
59169;SDS011;52474;52.236;5.114;2023-05-27T10:39:14;10.23;;;4.20;;
59169;SDS011;52474;52.236;5.114;2023-05-27T10:41:42;11.38;;;4.03;;
59169;SDS011;52474;52.236;5.114;2023-05-27T10:44:09;15.30;;;4.50;;
59169;SDS011;52474;52.236;5.114;2023-05-27T10:46:42;11.52;;;5.57;;
59169;SDS011;52474;52.236;5.114;2023-05-27T10:49:55;11.07;;;4.43;;
59169;SDS011;52474;52.236;5.114;2023-05-27T10:52:10;12.38;;;4.65;;
59169;SDS011;52474;52.236;5.114;2023-05-27T10:54:49;9.20;;;4.35;;
59169;SDS011;52474;52.236;5.114;2023-05-27T10:57:17;9.35;;;4.28;;
59169;SDS011;52474;52.236;5.114;2023-05-27T10:59:49;13.70;;;4.72;;
59169;SDS011;52474;52.236;5.114;2023-05-27T11:02:16;14.30;;;4.45;;
59169;SDS011;52474;52.236;5.114;2023-05-27T11:04:43;9.65;;;4.10;;
59169;SDS011;52474;52.236;5.114;2023-05-27T11:07:12;10.20;;;4.27;;
59169;SDS011;52474;52.236;5.114;2023-05-27T11:12:12;9.68;;;3.97;;
59169;SDS011;52474;52.236;5.114;2023-05-27T11:14:43;12.05;;;4.18;;
59169;SDS011;52474;52.236;5.114;2023-05-27T11:17:10;11.00;;;4.60;;
59169;SDS011;52474;52.236;5.114;2023-05-27T11:19:37;9.25;;;4.38;;
59169;SDS011;52474;52.236;5.114;2023-05-27T11:24:30;9.88;;;4.10;;
59169;SDS011;52474;52.236;5.114;2023-05-27T11:26:56;11.43;;;4.30;;
59169;SDS011;52474;52.236;5.114;2023-05-27T11:29:22;11.52;;;4.38;;
59169;SDS011;52474;52.236;5.114;2023-05-27T11:31:48;10.88;;;4.40;;
59169;SDS011;52474;52.236;5.114;2023-05-27T11:34:15;11.15;;;4.20;;
59169;SDS011;52474;52.236;5.114;2023-05-27T11:39:11;10.23;;;4.53;;
59169;SDS011;52474;52.236;5.114;2023-05-27T11:41:47;9.65;;;4.50;;
59169;SDS011;52474;52.236;5.114;2023-05-27T11:44:22;13.23;;;4.22;;
59169;SDS011;52474;52.236;5.114;2023-05-27T11:46:49;11.52;;;4.55;;
59169;SDS011;52474;52.236;5.114;2023-05-27T11:49:18;11.65;;;4.35;;
59169;SDS011;52474;52.236;5.114;2023-05-27T11:54:25;11.40;;;4.63;;
59169;SDS011;52474;52.236;5.114;2023-05-27T11:56:53;11.52;;;4.30;;
59169;SDS011;52474;52.236;5.114;2023-05-27T11:59:20;11.32;;;4.70;;
59169;SDS011;52474;52.236;5.114;2023-05-27T12:01:47;12.63;;;4.05;;
59169;SDS011;52474;52.236;5.114;2023-05-27T12:04:13;11.52;;;4.53;;
59169;SDS011;52474;52.236;5.114;2023-05-27T12:06:39;11.75;;;4.45;;
59169;SDS011;52474;52.236;5.114;2023-05-27T12:09:06;15.80;;;4.80;;
59169;SDS011;52474;52.236;5.114;2023-05-27T12:11:36;13.90;;;4.32;;
59169;SDS011;52474;52.236;5.114;2023-05-27T12:14:03;13.20;;;4.90;;
59169;SDS011;52474;52.236;5.114;2023-05-27T12:16:29;12.63;;;4.50;;
59169;SDS011;52474;52.236;5.114;2023-05-27T12:18:55;14.00;;;4.93;;
59169;SDS011;52474;52.236;5.114;2023-05-27T12:21:21;14.50;;;4.85;;
59169;SDS011;52474;52.236;5.114;2023-05-27T12:23:47;10.80;;;4.03;;
59169;SDS011;52474;52.236;5.114;2023-05-27T12:26:13;13.98;;;5.00;;
59169;SDS011;52474;52.236;5.114;2023-05-27T12:28:40;16.98;;;4.97;;
59169;SDS011;52474;52.236;5.114;2023-05-27T12:31:07;13.95;;;4.80;;
59169;SDS011;52474;52.236;5.114;2023-05-27T12:33:33;16.00;;;6.35;;
59169;SDS011;52474;52.236;5.114;2023-05-27T12:36:01;13.35;;;4.38;;
59169;SDS011;52474;52.236;5.114;2023-05-27T12:38:27;14.68;;;4.68;;
59169;SDS011;52474;52.236;5.114;2023-05-27T12:40:53;14.98;;;4.60;;
59169;SDS011;52474;52.236;5.114;2023-05-27T12:43:21;17.55;;;4.88;;
59169;SDS011;52474;52.236;5.114;2023-05-27T12:45:50;14.60;;;5.25;;
59169;SDS011;52474;52.236;5.114;2023-05-27T12:48:17;15.57;;;4.93;;
59169;SDS011;52474;52.236;5.114;2023-05-27T12:50:43;17.48;;;5.22;;
59169;SDS011;52474;52.236;5.114;2023-05-27T12:53:09;12.00;;;4.63;;
59169;SDS011;52474;52.236;5.114;2023-05-27T12:55:35;14.80;;;4.70;;
59169;SDS011;52474;52.236;5.114;2023-05-27T12:58:02;15.43;;;4.53;;
59169;SDS011;52474;52.236;5.114;2023-05-27T13:00:28;14.63;;;4.28;;
59169;SDS011;52474;52.236;5.114;2023-05-27T13:02:56;12.93;;;4.50;;
59169;SDS011;52474;52.236;5.114;2023-05-27T13:05:22;13.15;;;4.68;;
59169;SDS011;52474;52.236;5.114;2023-05-27T13:07:59;18.38;;;5.50;;
59169;SDS011;52474;52.236;5.114;2023-05-27T13:10:26;14.02;;;4.47;;
59169;SDS011;52474;52.236;5.114;2023-05-27T13:12:53;16.00;;;4.32;;
59169;SDS011;52474;52.236;5.114;2023-05-27T13:15:19;15.48;;;4.60;;
59169;SDS011;52474;52.236;5.114;2023-05-27T13:17:46;15.50;;;5.10;;
59169;SDS011;52474;52.236;5.114;2023-05-27T13:20:13;16.30;;;5.30;;
59169;SDS011;52474;52.236;5.114;2023-05-27T13:22:40;12.63;;;4.50;;
59169;SDS011;52474;52.236;5.114;2023-05-27T13:25:07;14.95;;;4.82;;
59169;SDS011;52474;52.236;5.114;2023-05-27T13:27:33;17.42;;;5.05;;
59169;SDS011;52474;52.236;5.114;2023-05-27T13:29:59;17.63;;;5.35;;
59169;SDS011;52474;52.236;5.114;2023-05-27T13:32:25;19.48;;;5.35;;
59169;SDS011;52474;52.236;5.114;2023-05-27T13:34:51;12.32;;;4.30;;
59169;SDS011;52474;52.236;5.114;2023-05-27T13:37:17;16.45;;;5.30;;
59169;SDS011;52474;52.236;5.114;2023-05-27T13:39:43;14.38;;;4.38;;
59169;SDS011;52474;52.236;5.114;2023-05-27T13:42:10;16.17;;;5.05;;
59169;SDS011;52474;52.236;5.114;2023-05-27T13:44:36;14.93;;;4.78;;
59169;SDS011;52474;52.236;5.114;2023-05-27T13:47:02;15.98;;;5.15;;
59169;SDS011;52474;52.236;5.114;2023-05-27T13:49:28;15.65;;;4.78;;
59169;SDS011;52474;52.236;5.114;2023-05-27T13:52:00;14.77;;;5.35;;
59169;SDS011;52474;52.236;5.114;2023-05-27T13:54:28;12.85;;;4.43;;
59169;SDS011;52474;52.236;5.114;2023-05-27T13:56:55;16.30;;;5.10;;
59169;SDS011;52474;52.236;5.114;2023-05-27T13:59:21;16.85;;;4.78;;
59169;SDS011;52474;52.236;5.114;2023-05-27T14:01:50;13.40;;;4.57;;
59169;SDS011;52474;52.236;5.114;2023-05-27T14:04:15;13.00;;;4.72;;
59169;SDS011;52474;52.236;5.114;2023-05-27T14:06:41;17.00;;;4.53;;
59169;SDS011;52474;52.236;5.114;2023-05-27T14:09:07;14.60;;;4.18;;
59169;SDS011;52474;52.236;5.114;2023-05-27T14:11:36;14.15;;;4.70;;
59169;SDS011;52474;52.236;5.114;2023-05-27T14:14:02;14.65;;;4.95;;
59169;SDS011;52474;52.236;5.114;2023-05-27T14:16:28;13.48;;;4.40;;
59169;SDS011;52474;52.236;5.114;2023-05-27T14:18:53;11.27;;;4.18;;
59169;SDS011;52474;52.236;5.114;2023-05-27T14:21:19;13.38;;;4.55;;
59169;SDS011;52474;52.236;5.114;2023-05-27T14:23:50;13.77;;;4.70;;
59169;SDS011;52474;52.236;5.114;2023-05-27T14:26:16;15.23;;;4.80;;
59169;SDS011;52474;52.236;5.114;2023-05-27T14:28:45;13.45;;;4.32;;
59169;SDS011;52474;52.236;5.114;2023-05-27T14:31:11;11.38;;;4.88;;
59169;SDS011;52474;52.236;5.114;2023-05-27T14:33:37;13.10;;;4.78;;
59169;SDS011;52474;52.236;5.114;2023-05-27T14:36:03;15.25;;;5.30;;
59169;SDS011;52474;52.236;5.114;2023-05-27T14:38:29;12.05;;;4.68;;
59169;SDS011;52474;52.236;5.114;2023-05-27T14:40:55;16.25;;;4.43;;
59169;SDS011;52474;52.236;5.114;2023-05-27T14:43:21;17.13;;;4.93;;
59169;SDS011;52474;52.236;5.114;2023-05-27T14:45:47;15.52;;;5.15;;
59169;SDS011;52474;52.236;5.114;2023-05-27T14:48:15;13.07;;;5.03;;
59169;SDS011;52474;52.236;5.114;2023-05-27T14:50:41;15.15;;;4.47;;
59169;SDS011;52474;52.236;5.114;2023-05-27T14:53:07;14.68;;;5.00;;
59169;SDS011;52474;52.236;5.114;2023-05-27T14:55:33;13.50;;;4.70;;
59169;SDS011;52474;52.236;5.114;2023-05-27T14:58:01;11.40;;;4.63;;
59169;SDS011;52474;52.236;5.114;2023-05-27T15:00:29;13.23;;;4.50;;
59169;SDS011;52474;52.236;5.114;2023-05-27T15:02:55;15.20;;;5.50;;
59169;SDS011;52474;52.236;5.114;2023-05-27T15:05:21;15.20;;;4.72;;
59169;SDS011;52474;52.236;5.114;2023-05-27T15:07:50;16.13;;;4.45;;
59169;SDS011;52474;52.236;5.114;2023-05-27T15:10:16;13.93;;;4.40;;
59169;SDS011;52474;52.236;5.114;2023-05-27T15:12:43;11.57;;;4.40;;
59169;SDS011;52474;52.236;5.114;2023-05-27T15:15:15;15.20;;;4.80;;
59169;SDS011;52474;52.236;5.114;2023-05-27T15:17:43;16.92;;;5.22;;
59169;SDS011;52474;52.236;5.114;2023-05-27T15:20:15;14.70;;;5.20;;
59169;SDS011;52474;52.236;5.114;2023-05-27T15:22:42;13.05;;;4.88;;